This is the latest recevied weather packets stored in our database for station/object VK3AFQ-13. If no packets are shown the sender has not sent any weather packets the latest 10 day(s).
| Time | Temp. | Humidity | Pressure | Rain* | Wind** | Luminosity | Snow |
|---|---|---|---|---|---|---|---|
| 1777512663 | 24.44° C | 40% | 1026.7 hPa | - | - | - | - |
| 1777511764 | 24.44° C | 41% | 1026.8 hPa | - | - | - | - |
| 1777510862 | 23.89° C | 41% | 1027.1 hPa | - | - | - | - |
| 1777509963 | 23.33° C | 43% | 1027.1 hPa | - | - | - | - |
| 1777509064 | 22.22° C | 45% | 1027.2 hPa | - | - | - | - |
| 1777508164 | 21.11° C | 48% | 1027.2 hPa | - | - | - | - |
| 1777507262 | 20.56° C | 50% | 1027.2 hPa | - | - | - | - |
| 1777506364 | 20° C | 52% | 1027.5 hPa | - | - | - | - |
| 1777505463 | 18.33° C | 56% | 1027.5 hPa | - | - | - | - |
| 1777504563 | 16.67° C | 58% | 1027.5 hPa | - | - | - | - |
| 1777503662 | 15.56° C | 62% | 1027.4 hPa | - | - | - | - |
| 1777502764 | 15° C | 63% | 1027.8 hPa | - | - | - | - |
| 1777501864 | 14.44° C | 64% | 1027.8 hPa | - | - | - | - |
| 1777500963 | 13.89° C | 66% | 1027.8 hPa | - | - | - | - |
| 1777500062 | 13.33° C | 66% | 1027.5 hPa | - | - | - | - |
| 1777499164 | 12.78° C | 68% | 1027.4 hPa | - | - | - | - |
| 1777498263 | 12.78° C | 68% | 1027.3 hPa | - | - | - | - |
| 1777497363 | 12.22° C | 68% | 1027 hPa | - | - | - | - |
| 1777496461 | 12.22° C | 68% | 1027 hPa | - | - | - | - |
| 1777495564 | 12.22° C | 68% | 1026.9 hPa | - | - | - | - |
| 1777494663 | 12.78° C | 66% | 1026.9 hPa | - | - | - | - |
| 1777493763 | 12.78° C | 65% | 1026.8 hPa | - | - | - | - |
| 1777492862 | 13.33° C | 64% | 1026.7 hPa | - | - | - | - |
| 1777491964 | 13.33° C | 62% | 1026.5 hPa | - | - | - | - |
| 1777491064 | 13.89° C | 61% | 1026.4 hPa | - | - | - | - |
* Rain since midnight (hover to see other rain measurements)
** Current wind speed in m/s (hover to see current wind gust speed)